Time;durP1;ratioP1;P1;durP2;ratioP2;P2;SDS_P1;SDS_P2;PMS_P1;PMS_P2;Temp;Humidity;BMP_temperature;BMP_pressure;BME280_temperature;BME280_humidity;BME280_pressure;Samples;Min_cycle;Max_cycle;Signal;HPM_P1;HPM_P2
2022/12/06 00:01:23;;;;;;;5.25;3.15;;;;;;;3.01;83.68;99229.28;5108713;28;20036;-74
2022/12/06 00:03:54;;;;;;;3.80;2.75;;;;;;;2.47;83.61;99139.09;5108658;28;20044;-74
2022/12/06 00:06:24;;;;;;;3.63;2.50;;;;;;;2.99;83.63;99233.69;5107524;28;20047;-74
2022/12/06 00:08:51;;;;;;;3.95;3.00;;;;;;;3.00;83.66;99227.56;5107477;28;20185;-73
2022/12/06 00:11:20;;;;;;;4.15;2.90;;;;;;;2.98;83.59;99232.81;5108257;28;20230;-74
2022/12/06 00:13:47;;;;;;;3.78;2.60;;;;;;;2.97;83.43;99218.03;5107353;28;20208;-73
2022/12/06 00:16:15;;;;;;;3.30;2.70;;;;;;;2.94;83.32;99251.28;5107344;28;20322;-74
2022/12/06 00:18:44;;;;;;;3.15;2.28;;;;;;;2.69;83.08;99164.69;5108349;28;20050;-73
2022/12/06 00:21:15;;;;;;;4.93;3.20;;;;;;;2.16;83.13;99088.47;5107965;28;20040;-74
2022/12/06 00:23:43;;;;;;;3.38;2.50;;;;;;;-0.32;82.85;98658.69;5108580;28;20044;-74
2022/12/06 00:26:11;;;;;;;4.22;2.42;;;;;;;2.89;83.17;99217.38;5107114;28;20040;-73
2022/12/06 00:28:39;;;;;;;4.13;2.78;;;;;;;2.88;83.01;99211.28;5108178;28;20170;-74
2022/12/06 00:31:07;;;;;;;3.38;2.50;;;;;;;2.88;82.87;99181.63;5107051;28;20065;-74
2022/12/06 00:33:35;;;;;;;3.50;2.38;;;;;;;2.85;82.86;99177.31;5107852;28;20300;-74
2022/12/06 00:36:05;;;;;;;7.35;2.50;;;;;;;2.15;82.80;99052.75;5108353;28;20051;-73
2022/12/06 00:38:35;;;;;;;3.10;2.28;;;;;;;2.78;83.08;99167.91;5108258;28;20094;-74
2022/12/06 00:41:03;;;;;;;2.65;1.90;;;;;;;2.82;83.08;99187.88;5106769;28;20036;-74
2022/12/06 00:43:30;;;;;;;3.03;1.90;;;;;;;2.81;83.01;99193.16;5106742;28;20040;-74
2022/12/06 00:45:58;;;;;;;2.75;1.80;;;;;;;2.81;82.91;99195.75;5107485;28;20258;-73
2022/12/06 00:48:24;;;;;;;2.40;1.70;;;;;;;2.80;82.81;99194.06;5106670;28;20234;-74
2022/12/06 00:50:51;;;;;;;2.53;1.77;;;;;;;2.78;82.68;99181.00;5106363;28;20035;-74
2022/12/06 00:53:19;;;;;;;2.67;1.85;;;;;;;2.75;82.55;99188.94;5107675;28;20059;-73
2022/12/06 00:55:47;;;;;;;2.95;1.90;;;;;;;2.74;82.81;99176.75;5106543;28;20036;-74
2022/12/06 00:58:15;;;;;;;2.38;1.70;;;;;;;2.75;82.86;99190.69;5107319;28;20040;-73
2022/12/06 01:00:42;;;;;;;2.58;1.70;;;;;;;2.38;82.72;99131.47;5107714;28;20067;-73
2022/12/06 01:03:10;;;;;;;3.55;1.60;;;;;;;2.77;82.81;99174.03;5107750;28;20093;-74
2022/12/06 01:05:40;;;;;;;2.72;1.70;;;;;;;2.52;82.74;99129.34;5107438;28;20044;-74
2022/12/06 01:08:07;;;;;;;3.05;2.00;;;;;;;2.77;82.81;99174.03;5106227;28;20081;-74
2022/12/06 01:10:34;;;;;;;2.22;1.80;;;;;;;2.78;82.77;99165.31;5107289;28;20101;-74
2022/12/06 01:13:03;;;;;;;2.38;1.77;;;;;;;2.78;82.54;99172.28;5105838;28;20036;-73
2022/12/06 01:15:30;;;;;;;2.88;1.85;;;;;;;2.77;82.37;99165.34;5106144;28;20074;-73
2022/12/06 01:17:57;;;;;;;2.35;1.70;;;;;;;2.77;82.61;99155.72;5106060;28;20040;-74
2022/12/06 01:20:24;;;;;;;2.50;1.90;;;;;;;2.77;82.67;99153.13;5107158;28;20085;-74
2022/12/06 01:22:50;;;;;;;2.55;1.80;;;;;;;2.76;82.38;99140.94;5106731;28;20043;-74
2022/12/06 01:25:17;;;;;;;2.65;1.95;;;;;;;2.76;82.50;99147.91;5107031;28;20081;-74
2022/12/06 01:27:44;;;;;;;2.88;2.00;;;;;;;2.77;82.66;99142.66;5105774;28;20044;-74
2022/12/06 01:30:13;;;;;;;2.80;1.90;;;;;;;2.71;82.63;99139.34;5105799;28;20044;-74
2022/12/06 01:32:39;;;;;;;3.05;2.00;;;;;;;2.76;82.39;99143.53;5105779;28;20036;-74
2022/12/06 01:35:07;;;;;;;2.65;1.85;;;;;;;2.77;82.57;99157.50;5106577;28;20204;-74
2022/12/06 01:37:34;;;;;;;2.63;2.08;;;;;;;2.60;82.56;99126.53;5105767;28;20036;-73
2022/12/06 01:40:01;;;;;;;2.50;1.80;;;;;;;2.79;82.51;99150.47;5105612;28;20047;-74
2022/12/06 01:42:27;;;;;;;2.50;2.00;;;;;;;2.79;82.46;99142.59;5106743;28;20280;-74
2022/12/06 01:44:56;;;;;;;2.70;1.90;;;;;;;2.79;82.38;99138.22;5106423;28;20055;-74
2022/12/06 01:47:27;;;;;;;2.60;2.00;;;;;;;2.77;82.51;99145.25;5106280;28;20060;-73
2022/12/06 01:49:58;;;;;;;2.50;1.80;;;;;;;2.78;82.46;99133.03;5106883;28;20040;-73
2022/12/06 01:52:28;;;;;;;2.75;2.03;;;;;;;2.79;82.22;99147.84;5106077;28;20044;-73
2022/12/06 01:54:55;;;;;;;2.30;1.75;;;;;;;2.79;82.21;99138.22;5106771;28;20059;-73
2022/12/06 01:57:22;;;;;;;2.75;1.80;;;;;;;2.38;82.21;99066.09;5106279;28;20044;-74
2022/12/06 01:59:49;;;;;;;3.10;2.45;;;;;;;2.79;82.35;99139.97;5106185;28;20044;-74
2022/12/06 02:02:16;;;;;;;2.85;2.05;;;;;;;2.80;82.34;99139.94;5106096;28;20047;-73
2022/12/06 02:04:44;;;;;;;2.35;1.80;;;;;;;2.79;82.20;99121.66;5106382;28;20044;-73
2022/12/06 02:07:12;;;;;;;2.95;2.08;;;;;;;2.79;82.52;99116.44;5105249;28;20218;-74
2022/12/06 02:09:40;;;;;;;2.55;1.85;;;;;;;2.77;82.61;99132.19;5105242;28;20048;-74
2022/12/06 02:12:12;;;;;;;2.63;1.80;;;;;;;2.78;82.58;99138.28;5105745;28;20215;-74
2022/12/06 02:14:40;;;;;;;2.40;1.88;;;;;;;2.78;82.56;99144.34;5106488;28;20047;-74
2022/12/06 02:17:23;;;;;;;2.78;1.83;;;;;;;2.81;81.93;99146.03;5105109;28;20295;-73
2022/12/06 02:20:18;;;;;;;2.33;1.70;;;;;;;2.83;81.82;99137.25;5105037;28;20040;-73
2022/12/06 02:23:16;;;;;;;2.60;1.98;;;;;;;2.81;81.86;99127.72;5106305;28;20085;-74
2022/12/06 02:26:14;;;;;;;2.55;1.92;;;;;;;2.83;81.94;99123.31;5083778;28;20058;-74
2022/12/06 02:29:16;;;;;;;2.65;1.95;;;;;;;2.83;81.75;99137.25;5106023;28;20076;-74
2022/12/06 02:31:50;;;;;;;2.35;1.70;;;;;;;2.61;82.08;99109.94;5106268;28;20093;-74
2022/12/06 02:34:20;;;;;;;2.78;1.80;;;;;;;2.84;82.11;99122.41;5104895;28;20218;-74
2022/12/06 02:36:52;;;;;;;2.85;2.35;;;;;;;2.51;82.17;99066.63;5105958;28;20048;-74
2022/12/06 02:39:26;;;;;;;2.65;2.00;;;;;;;2.82;82.54;99119.81;5105925;28;20051;-73
2022/12/06 02:42:00;;;;;;;2.85;2.00;;;;;;;2.63;82.28;99076.75;5105828;28;20040;-74
2022/12/06 02:44:34;;;;;;;2.40;1.85;;;;;;;2.82;82.24;99098.88;5105346;28;20106;-74
2022/12/06 02:47:06;;;;;;;3.65;2.00;;;;;;;2.83;82.29;99102.34;5105810;28;20051;-74
2022/12/06 02:49:35;;;;;;;2.30;1.70;;;;;;;2.70;82.11;99070.44;5105825;28;20039;-74
2022/12/06 02:52:03;;;;;;;2.40;1.80;;;;;;;2.85;81.94;99097.94;5105261;28;20293;-74
2022/12/06 02:54:29;;;;;;;2.10;1.60;;;;;;;2.69;81.88;99070.47;5105760;28;20048;-73
2022/12/06 02:56:56;;;;;;;2.42;1.70;;;;;;;1.79;81.64;98911.69;5105466;28;20090;-73
2022/12/06 02:59:23;;;;;;;3.65;1.92;;;;;;;2.85;81.74;99111.88;5105456;28;20242;-73
2022/12/06 03:01:55;;;;;;;2.50;1.90;;;;;;;2.86;81.46;99100.50;5105889;28;20044;-74
2022/12/06 03:04:47;;;;;;;2.30;1.70;;;;;;;2.87;81.14;99091.75;5105966;28;20058;-73
2022/12/06 03:07:35;;;;;;;2.40;1.70;;;;;;;2.86;81.29;99097.91;5106018;28;20296;-74
2022/12/06 03:10:27;;;;;;;2.30;1.60;;;;;;;2.86;81.29;99092.66;5105903;28;20036;-74
2022/12/06 03:13:01;;;;;;;2.33;1.70;;;;;;;2.79;81.76;99075.41;5105871;28;20055;-74
2022/12/06 03:15:39;;;;;;;2.53;1.77;;;;;;;2.52;81.40;99039.56;5105589;28;20062;-74
2022/12/06 03:18:12;;;;;;;2.30;1.92;;;;;;;2.88;81.34;99076.91;5104858;28;20040;-74
2022/12/06 03:20:47;;;;;;;2.30;1.70;;;;;;;2.89;81.25;99086.47;5105328;28;20295;-74
2022/12/06 03:23:19;;;;;;;2.20;1.73;;;;;;;2.88;81.25;99088.25;5105760;28;20239;-74
2022/12/06 03:25:49;;;;;;;2.10;1.60;;;;;;;2.91;81.54;99068.13;5105781;28;20188;-74
2022/12/06 03:28:18;;;;;;;2.50;1.70;;;;;;;2.92;81.52;99077.69;5104400;28;20101;-73
2022/12/06 03:30:50;;;;;;;2.50;1.80;;;;;;;2.91;81.45;99075.97;5104440;28;20069;-73
2022/12/06 03:33:19;;;;;;;2.30;1.70;;;;;;;2.91;81.60;99083.81;5105522;28;20093;-73
2022/12/06 03:35:50;;;;;;;2.92;2.00;;;;;;;2.72;81.46;99050.31;5105760;28;20044;-73
2022/12/06 03:38:26;;;;;;;2.70;2.00;;;;;;;2.74;81.46;99060.75;5109190;28;20211;-73
2022/12/06 03:40:55;;;;;;;2.15;1.70;;;;;;;2.91;81.59;99089.06;5108001;28;20296;-73
2022/12/06 03:43:23;;;;;;;2.60;2.00;;;;;;;2.92;81.55;99075.06;5108503;28;20039;-74
2022/12/06 03:45:55;;;;;;;2.80;1.85;;;;;;;2.91;81.63;99082.06;5109011;28;20054;-74
2022/12/06 03:48:27;;;;;;;2.65;2.13;;;;;;;1.89;81.46;98914.91;5108694;28;20051;-74
2022/12/06 03:51:00;;;;;;;2.67;2.33;;;;;;;2.94;81.58;99073.25;5109000;28;20043;-74
2022/12/06 03:53:26;;;;;;;2.78;2.10;;;;;;;2.94;81.65;99083.72;5108590;28;20047;-73
2022/12/06 03:55:53;;;;;;;2.70;2.20;;;;;;;2.97;81.56;99086.25;5107672;28;20040;-74
2022/12/06 03:58:20;;;;;;;3.22;2.53;;;;;;;2.98;81.61;99086.22;5108989;28;20234;-74
2022/12/06 04:00:47;;;;;;;2.80;2.28;;;;;;;3.00;81.69;99075.69;5108404;28;20100;-73
2022/12/06 04:03:14;;;;;;;3.13;2.30;;;;;;;2.99;81.59;99076.59;5108596;28;20097;-73
2022/12/06 04:05:40;;;;;;;2.92;2.38;;;;;;;3.00;81.45;99092.28;5108317;28;20044;-73
2022/12/06 04:08:08;;;;;;;2.97;2.47;;;;;;;3.02;81.48;99087.00;5107428;28;20090;-73
2022/12/06 04:10:35;;;;;;;2.80;2.30;;;;;;;3.01;81.50;99091.38;5108203;28;20043;-74
2022/12/06 04:13:01;;;;;;;3.03;2.45;;;;;;;2.85;81.29;99051.69;5107722;28;20086;-74
2022/12/06 04:15:29;;;;;;;2.70;2.10;;;;;;;3.03;81.56;99088.69;5108621;28;20316;-74
2022/12/06 04:18:12;;;;;;;2.80;2.20;;;;;;;2.88;81.56;99056.84;5108151;28;20090;-74
2022/12/06 04:23:30;;;;;;;2.90;2.30;;;;;;;3.09;81.42;99091.16;5107101;28;20357;-73
2022/12/06 04:25:57;;;;;;;2.72;2.10;;;;;;;3.10;81.33;99080.63;5108522;28;20238;-74
2022/12/06 04:39:26;;;;;;;3.08;2.20;;;;;;;2.27;80.99;98952.22;5108096;28;20050;-74
2022/12/06 04:44:37;;;;;;;2.80;2.28;;;;;;;3.13;81.17;99083.16;5107123;28;20082;-74
2022/12/06 04:47:04;;;;;;;2.92;2.30;;;;;;;3.16;81.23;99090.06;5107463;28;20310;-75
2022/12/06 04:49:31;;;;;;;2.78;2.15;;;;;;;0.32;80.67;98605.03;5107412;28;20040;-74
2022/12/06 04:51:58;;;;;;;2.75;2.08;;;;;;;3.20;80.97;99082.06;5107185;28;20366;-75
2022/12/06 04:54:26;;;;;;;2.75;2.17;;;;;;;3.23;80.83;99085.50;5107381;28;20056;-74
2022/12/06 04:56:53;;;;;;;2.80;2.20;;;;;;;1.56;80.45;98796.50;5106531;28;20177;-74
2022/12/06 04:59:20;;;;;;;2.70;2.10;;;;;;;3.26;80.57;99069.69;5106423;28;20082;-74
2022/12/06 05:01:47;;;;;;;3.08;2.20;;;;;;;3.27;80.65;99081.88;5107714;28;20051;-74
2022/12/06 05:04:13;;;;;;;2.67;2.05;;;;;;;3.28;80.57;99065.28;5107748;28;20284;-74
2022/12/06 05:06:40;;;;;;;3.20;2.38;;;;;;;3.29;80.50;99064.38;5107405;28;20043;-75
2022/12/06 05:09:07;;;;;;;2.85;2.10;;;;;;;2.78;80.54;98989.09;5106379;28;20044;-74
2022/12/06 05:11:35;;;;;;;2.58;2.13;;;;;;;3.30;80.27;99069.56;5106985;28;20115;-74
2022/12/06 05:14:02;;;;;;;2.50;1.80;;;;;;;3.05;80.19;99022.31;5107531;28;20105;-74
2022/12/06 05:16:28;;;;;;;2.80;2.00;;;;;;;3.30;80.20;99082.66;5107230;28;20063;-75
2022/12/06 05:18:55;;;;;;;2.40;1.83;;;;;;;3.33;80.12;99066.84;5107358;28;20055;-74
2022/12/06 05:21:24;;;;;;;2.50;1.98;;;;;;;3.33;79.96;99066.84;5107172;28;20055;-73
2022/12/06 05:23:54;;;;;;;2.60;1.90;;;;;;;3.10;79.92;99035.25;5106482;28;20211;-74
2022/12/06 05:26:22;;;;;;;2.30;1.80;;;;;;;3.24;79.81;99061.03;5107054;28;20044;-74
2022/12/06 05:28:51;;;;;;;2.55;1.90;;;;;;;3.36;79.86;99066.75;5105934;28;20292;-73
2022/12/06 05:31:19;;;;;;;2.53;1.92;;;;;;;3.36;79.81;99073.75;5105884;28;20299;-72
2022/12/06 05:33:46;;;;;;;2.40;1.83;;;;;;;3.38;79.73;99053.59;5106662;28;20089;-74
2022/12/06 05:36:17;;;;;;;2.17;1.65;;;;;;;3.36;79.62;99066.75;5106919;28;20044;-73
2022/12/06 05:38:44;;;;;;;2.45;2.00;;;;;;;2.97;79.55;99011.19;5106652;28;20108;-73
2022/12/06 05:41:11;;;;;;;2.40;1.92;;;;;;;3.40;79.32;99078.00;5105664;28;20036;-73
2022/12/06 05:43:39;;;;;;;2.63;2.05;;;;;;;3.41;79.55;99067.47;5088897;28;20036;-73
2022/12/06 05:46:07;;;;;;;2.80;2.13;;;;;;;3.40;79.42;99065.75;5106970;28;20054;-73
2022/12/06 05:48:34;;;;;;;2.92;2.17;;;;;;;3.42;79.47;99071.81;5105466;28;20238;-74
2022/12/06 05:51:01;;;;;;;2.70;2.10;;;;;;;3.28;79.30;99046.94;5106370;28;20051;-73
2022/12/06 05:53:28;;;;;;;2.75;2.38;;;;;;;3.40;79.37;99084.09;5106312;28;20040;-73
2022/12/06 05:55:55;;;;;;;3.10;2.22;;;;;;;3.40;79.32;99084.09;5106271;28;20246;-73
2022/12/06 05:58:22;;;;;;;2.70;1.90;;;;;;;3.42;79.26;99084.91;5105409;28;20087;-73
2022/12/06 06:00:49;;;;;;;2.60;2.05;;;;;;;3.41;78.88;99098.91;5106554;28;20109;-73
2022/12/06 06:03:18;;;;;;;2.70;1.90;;;;;;;3.42;79.13;99086.66;5106330;28;20036;-72
2022/12/06 06:05:46;;;;;;;3.20;2.20;;;;;;;3.41;79.16;99077.94;5106307;28;20318;-73
2022/12/06 06:08:14;;;;;;;3.85;2.38;;;;;;;3.43;78.93;99067.41;5105961;28;20043;-73
2022/12/06 06:10:41;;;;;;;3.65;2.50;;;;;;;3.41;78.98;99083.19;5106066;28;20210;-73
2022/12/06 06:13:07;;;;;;;3.05;2.53;;;;;;;2.48;78.91;98931.53;5105440;28;20032;-73
2022/12/06 06:15:34;;;;;;;3.05;2.30;;;;;;;3.44;78.96;99071.75;5106170;28;20055;-73
2022/12/06 06:18:01;;;;;;;2.83;2.30;;;;;;;3.42;78.75;99066.56;5105946;28;20043;-73
2022/12/06 06:20:29;;;;;;;2.97;2.60;;;;;;;3.42;78.91;99061.31;5105052;28;20036;-74
2022/12/06 06:22:56;;;;;;;3.70;2.95;;;;;;;3.45;78.94;99074.31;5105495;28;20093;-73
2022/12/06 06:25:23;;;;;;;3.35;3.03;;;;;;;3.45;78.88;99084.81;5104886;28;20047;-74
2022/12/06 06:27:50;;;;;;;4.55;3.20;;;;;;;3.18;78.88;99028.03;5105165;28;20040;-73
2022/12/06 06:30:17;;;;;;;3.05;2.60;;;;;;;3.46;78.96;99067.31;5105964;28;20199;-73
2022/12/06 06:32:44;;;;;;;3.05;2.47;;;;;;;3.45;78.83;99082.19;5106245;28;20028;-73
2022/12/06 06:35:11;;;;;;;3.20;2.42;;;;;;;3.34;78.58;99054.59;5105689;28;20036;-73
2022/12/06 06:37:39;;;;;;;3.30;2.60;;;;;;;3.30;78.97;99056.47;5105664;28;20055;-74
2022/12/06 06:40:07;;;;;;;3.35;2.95;;;;;;;3.45;78.93;99076.94;5106195;28;20051;-73
2022/12/06 06:42:34;;;;;;;3.35;2.65;;;;;;;2.87;78.69;99005.38;5105294;28;20059;-73
2022/12/06 06:45:00;;;;;;;3.88;3.00;;;;;;;3.39;78.70;99077.13;5105571;28;20090;-74
2022/12/06 06:47:27;;;;;;;3.85;2.95;;;;;;;3.42;78.91;99086.66;5105580;28;20044;-73
2022/12/06 06:49:54;;;;;;;3.25;2.70;;;;;;;3.41;78.86;99096.28;5104691;28;20036;-73
2022/12/06 06:52:21;;;;;;;3.13;2.80;;;;;;;3.42;78.98;99103.25;5105204;28;20060;-74
2022/12/06 06:54:49;;;;;;;3.60;2.80;;;;;;;3.31;78.82;99084.38;5105702;28;20044;-73
2022/12/06 06:57:15;;;;;;;5.10;3.35;;;;;;;3.43;79.01;99106.72;5105416;28;20040;-73
2022/12/06 06:59:43;;;;;;;3.72;2.85;;;;;;;3.42;79.14;99102.38;5105718;28;20056;-74
2022/12/06 07:02:12;;;;;;;3.58;2.95;;;;;;;3.42;79.04;99108.47;5105628;28;20107;-73
2022/12/06 07:04:39;;;;;;;4.20;3.40;;;;;;;3.19;79.03;99069.03;5104394;28;20086;-73
2022/12/06 07:07:05;;;;;;;3.42;2.92;;;;;;;3.43;78.94;99120.69;5104740;28;20086;-73
2022/12/06 07:09:33;;;;;;;4.53;3.58;;;;;;;3.44;79.08;99111.06;5105302;28;20206;-73
2022/12/06 07:12:01;;;;;;;4.30;3.70;;;;;;;3.45;79.18;99120.63;5108128;28;20139;-73
2022/12/06 07:14:27;;;;;;;5.68;5.07;;;;;;;3.45;79.16;99110.16;5108515;28;20115;-73
2022/12/06 07:16:54;;;;;;;4.20;3.20;;;;;;;3.43;79.04;99118.06;5108358;28;20045;-73
2022/12/06 07:19:21;;;;;;;4.88;3.92;;;;;;;2.95;79.07;99025.25;5109320;28;20039;-74
2022/12/06 07:21:48;;;;;;;4.28;3.30;;;;;;;3.42;79.36;99112.84;5109432;28;20073;-74
2022/12/06 07:24:15;;;;;;;3.95;3.00;;;;;;;3.41;79.29;99117.25;5109337;28;20292;-74
2022/12/06 07:26:41;;;;;;;3.70;3.30;;;;;;;3.24;79.58;99087.22;5109062;28;20036;-74
2022/12/06 07:29:10;;;;;;;3.95;3.17;;;;;;;3.39;79.50;99113.81;5108126;28;20044;-74
2022/12/06 07:31:36;;;;;;;4.65;3.00;;;;;;;3.40;79.57;99104.19;5108121;28;20303;-74
2022/12/06 07:34:03;;;;;;;3.50;2.80;;;;;;;3.41;79.76;99105.91;5109281;28;20036;-73
2022/12/06 07:36:31;;;;;;;3.83;3.42;;;;;;;3.42;79.76;99115.47;5108307;28;20048;-74
2022/12/06 07:38:59;;;;;;;3.05;2.60;;;;;;;3.43;79.67;99109.34;5108102;28;20067;-74
2022/12/06 07:47:12;;;;;;;4.28;3.15;;;;;;;3.41;79.74;99125.09;5067264;28;20045;-73
2022/12/06 07:49:38;;;;;;;3.40;2.72;;;;;;;3.26;79.95;99080.16;5090607;28;20060;-74
2022/12/06 07:52:05;;;;;;;4.15;3.10;;;;;;;3.45;79.92;99112.78;5108447;28;20172;-74
2022/12/06 07:54:32;;;;;;;3.20;2.70;;;;;;;3.47;79.88;99098.72;5109308;28;20093;-74
2022/12/06 07:56:59;;;;;;;4.15;3.22;;;;;;;3.51;79.98;99115.19;5107690;28;20048;-74
2022/12/06 07:59:27;;;;;;;3.80;3.03;;;;;;;3.51;79.91;99108.19;5108625;28;20062;-74
2022/12/06 08:01:54;;;;;;;3.53;3.03;;;;;;;3.36;79.88;99092.94;5107488;28;20043;-74
2022/12/06 08:04:21;;;;;;;3.70;2.90;;;;;;;2.50;79.66;98936.72;5108596;28;20055;-74
2022/12/06 08:06:48;;;;;;;3.83;3.15;;;;;;;3.52;79.73;99112.53;5107742;28;20036;-74
2022/12/06 08:09:15;;;;;;;7.65;2.90;;;;;;;3.53;79.38;99108.16;5108558;28;20292;-74
2022/12/06 08:11:41;;;;;;;4.05;3.03;;;;;;;3.36;79.81;99079.00;5107259;28;20043;-74
2022/12/06 08:14:10;;;;;;;3.83;3.08;;;;;;;3.52;79.37;99119.53;5107273;28;20196;-74
2022/12/06 08:16:39;;;;;;;3.75;2.90;;;;;;;-0.56;78.98;98438.84;5108437;28;20085;-74
2022/12/06 08:19:06;;;;;;;3.75;2.75;;;;;;;3.50;79.17;99106.50;5108400;28;20093;-73
2022/12/06 08:21:33;;;;;;;4.63;3.10;;;;;;;3.47;79.47;99106.56;5108339;28;20040;-73
2022/12/06 08:24:01;;;;;;;3.55;2.80;;;;;;;3.50;79.51;99108.25;5107921;28;20040;-73
2022/12/06 08:26:27;;;;;;;3.70;3.10;;;;;;;3.50;79.62;99113.50;5108220;28;20062;-73
2022/12/06 08:28:54;;;;;;;4.63;3.10;;;;;;;3.52;79.72;99119.53;5107013;28;20237;-73
2022/12/06 08:31:23;;;;;;;4.03;3.25;;;;;;;3.16;79.57;99058.63;5107844;28;20052;-73
2022/12/06 08:33:52;;;;;;;3.75;3.20;;;;;;;3.50;79.77;99116.09;5108311;28;20089;-73
2022/12/06 08:36:22;;;;;;;3.70;3.00;;;;;;;2.29;79.48;98911.19;5107925;28;20222;-73
2022/12/06 08:38:49;;;;;;;3.65;3.20;;;;;;;2.97;79.69;99050.47;5107713;28;20044;-73
2022/12/06 08:44:02;;;;;;;4.85;3.20;;;;;;;3.49;79.85;99125.72;5107920;28;20040;-73
2022/12/06 08:46:30;;;;;;;3.92;3.03;;;;;;;3.49;80.22;99117.88;5107917;28;20317;-73
2022/12/06 08:48:58;;;;;;;4.25;3.35;;;;;;;0.45;79.81;98603.81;5107785;28;20086;-73
2022/12/06 08:51:25;;;;;;;4.30;3.15;;;;;;;3.53;79.92;99121.25;5107206;28;20040;-74
2022/12/06 08:53:54;;;;;;;4.15;3.65;;;;;;;3.52;79.83;99136.13;5107527;28;20249;-73
2022/12/06 08:56:20;;;;;;;3.97;3.25;;;;;;;3.50;79.92;99121.34;5106762;28;20300;-73
2022/12/06 08:58:47;;;;;;;3.30;2.67;;;;;;;3.50;79.81;99124.81;5107176;28;20090;-73
2022/12/06 09:01:15;;;;;;;3.63;2.70;;;;;;;3.54;79.85;99130.84;5107457;28;20048;-73
2022/12/06 09:03:42;;;;;;;3.55;3.05;;;;;;;3.54;79.90;99128.22;5107399;28;20040;-74
2022/12/06 09:06:11;;;;;;;4.10;3.10;;;;;;;3.55;79.84;99132.53;5107131;28;20094;-73
2022/12/06 09:08:38;;;;;;;3.60;2.72;;;;;;;2.81;79.88;99013.41;5106287;28;20044;-73
2022/12/06 09:11:06;;;;;;;3.63;2.97;;;;;;;3.55;80.17;99156.13;5107379;28;20173;-73
2022/12/06 09:13:33;;;;;;;4.22;3.67;;;;;;;3.55;80.09;99137.78;5106977;28;20040;-74
2022/12/06 09:16:01;;;;;;;3.67;2.90;;;;;;;2.82;79.78;99014.28;5106249;28;20055;-73
2022/12/06 09:18:28;;;;;;;4.25;3.50;;;;;;;2.83;79.83;99036.94;5106962;28;20032;-73
2022/12/06 09:20:55;;;;;;;3.50;3.08;;;;;;;3.49;79.91;99136.22;5107214;28;20097;-73
2022/12/06 09:23:23;;;;;;;3.88;3.25;;;;;;;3.52;79.99;99125.63;5106839;28;20291;-73
2022/12/06 09:25:50;;;;;;;3.85;3.03;;;;;;;3.23;80.13;99077.66;5106811;28;20051;-73
2022/12/06 09:28:17;;;;;;;4.28;3.33;;;;;;;3.54;80.13;99138.69;5106955;28;20044;-74
2022/12/06 09:30:44;;;;;;;4.13;3.58;;;;;;;3.56;80.06;99147.38;5106892;28;20052;-73
2022/12/06 09:33:10;;;;;;;4.70;3.80;;;;;;;3.58;80.10;99134.22;5106892;28;20165;-73
2022/12/06 09:35:37;;;;;;;4.90;3.70;;;;;;;3.60;80.16;99127.16;5106456;28;20051;-73
2022/12/06 09:38:05;;;;;;;4.78;3.90;;;;;;;3.60;80.04;99129.78;5106776;28;20105;-73
2022/12/06 09:40:35;;;;;;;4.20;3.50;;;;;;;3.24;79.91;99080.22;5106825;28;20044;-73
2022/12/06 09:43:15;;;;;;;4.05;3.13;;;;;;;3.60;79.75;99127.16;5106904;28;20066;-73
2022/12/06 09:46:11;;;;;;;4.47;4.07;;;;;;;3.61;79.79;99128.88;5106260;28;20055;-73
2022/12/06 09:48:59;;;;;;;6.63;3.97;;;;;;;3.60;79.68;99120.16;5102984;28;20044;-73
2022/12/06 09:51:43;;;;;;;4.68;4.13;;;;;;;3.59;79.59;99121.06;5106573;28;20064;-73
2022/12/06 09:54:21;;;;;;;4.25;3.22;;;;;;;3.43;79.72;99102.34;5106352;28;20206;-73
2022/12/06 09:56:52;;;;;;;5.15;3.30;;;;;;;3.60;79.73;99119.31;5105325;28;20050;-73
2022/12/06 09:59:29;;;;;;;4.13;3.25;;;;;;;3.62;79.31;99125.34;5106460;28;20089;-73
2022/12/06 10:02:15;;;;;;;4.70;3.67;;;;;;;3.62;79.00;99109.63;5106672;28;20043;-73
2022/12/06 10:04:57;;;;;;;4.72;3.65;;;;;;;3.63;79.07;99112.22;5105375;28;20044;-73
2022/12/06 10:07:30;;;;;;;5.15;4.20;;;;;;;3.68;79.28;99106.81;5106128;28;20054;-73
2022/12/06 10:10:08;;;;;;;4.65;3.75;;;;;;;3.74;79.02;99089.13;5106533;28;20047;-73
2022/12/06 10:12:55;;;;;;;4.97;3.60;;;;;;;3.81;79.07;99105.53;5106245;28;20036;-73
2022/12/06 10:15:33;;;;;;;4.38;3.75;;;;;;;3.50;78.73;99042.75;5105749;28;20189;-73
2022/12/06 10:18:27;;;;;;;5.00;4.03;;;;;;;3.95;78.47;99097.22;5106241;28;20093;-73
2022/12/06 10:21:02;;;;;;;4.90;4.30;;;;;;;4.02;78.83;99088.25;5105002;28;20052;-73
2022/12/06 10:23:45;;;;;;;4.72;3.42;;;;;;;4.09;78.09;99088.00;5105991;28;20195;-73
2022/12/06 10:26:15;;;;;;;4.60;3.70;;;;;;;4.19;78.15;99085.94;5106147;28;20048;-73
2022/12/06 10:28:52;;;;;;;5.97;4.18;;;;;;;4.27;77.93;99083.94;5105686;28;20040;-73
2022/12/06 10:31:23;;;;;;;5.57;4.22;;;;;;;3.58;77.95;98972.59;5106080;28;20292;-73
2022/12/06 10:33:57;;;;;;;6.68;4.32;;;;;;;4.42;77.79;99093.91;5104772;28;20047;-73
2022/12/06 10:36:38;;;;;;;6.00;4.53;;;;;;;4.44;76.43;99164.69;5104914;28;20048;-73
2022/12/06 10:39:15;;;;;;;4.97;4.35;;;;;;;3.95;77.12;99008.94;5105352;28;20048;-73
2022/12/06 10:41:50;;;;;;;6.50;5.00;;;;;;;4.06;77.12;99019.06;5105859;28;20292;-73
2022/12/06 10:44:24;;;;;;;5.57;4.65;;;;;;;4.49;77.18;99091.94;5105598;28;20234;-73
2022/12/06 10:47:05;;;;;;;5.57;4.80;;;;;;;4.52;77.28;99093.59;5107580;28;20048;-73
2022/12/06 10:49:46;;;;;;;4.97;4.43;;;;;;;4.55;76.85;99088.22;5109007;28;20780;-73
2022/12/06 10:52:34;;;;;;;6.65;5.55;;;;;;;4.63;76.85;99091.44;5109481;28;20232;-73
2022/12/06 10:55:19;;;;;;;6.45;5.60;;;;;;;4.67;76.93;99087.81;5108941;28;20036;-72
2022/12/06 10:57:52;;;;;;;6.95;6.00;;;;;;;4.68;77.49;99085.13;5109291;28;20068;-73
2022/12/06 11:00:23;;;;;;;7.50;6.38;;;;;;;4.68;77.25;99085.13;5110031;28;20052;-73
2022/12/06 11:02:57;;;;;;;7.45;6.18;;;;;;;4.65;77.31;99079.97;5109381;28;20044;-72
2022/12/06 11:05:30;;;;;;;7.38;6.63;;;;;;;4.16;77.50;99018.69;5109590;28;20169;-73
2022/12/06 11:08:07;;;;;;;8.32;7.25;;;;;;;4.66;77.23;99081.69;5109378;28;20051;-72
2022/12/06 11:10:35;;;;;;;8.60;6.65;;;;;;;4.65;77.64;99079.13;5109197;28;20123;-73
2022/12/06 11:13:13;;;;;;;9.23;7.10;;;;;;;4.69;76.88;99076.34;5109473;28;20051;-73
2022/12/06 11:15:48;;;;;;;10.10;8.45;;;;;;;4.76;77.28;99079.59;5109453;28;20052;-73
2022/12/06 11:18:17;;;;;;;9.82;7.53;;;;;;;4.81;77.16;99070.63;5109433;28;20048;-73
2022/12/06 11:20:48;;;;;;;8.93;7.28;;;;;;;4.71;76.73;99048.25;5109271;28;20056;-73
2022/12/06 11:23:22;;;;;;;9.48;8.00;;;;;;;4.92;76.92;99072.91;5109131;28;20044;-73
2022/12/06 11:26:03;;;;;;;8.10;7.18;;;;;;;5.00;76.69;99070.84;5109537;28;20097;-73
2022/12/06 11:28:37;;;;;;;9.90;8.43;;;;;;;4.78;76.80;99036.63;5108068;28;20200;-73
2022/12/06 11:31:16;;;;;;;9.93;8.88;;;;;;;5.01;76.50;99077.81;5109365;28;20203;-73
2022/12/06 11:33:45;;;;;;;10.68;9.18;;;;;;;5.02;76.97;99065.53;5108240;28;20089;-73
2022/12/06 11:36:12;;;;;;;11.02;9.45;;;;;;;5.03;76.90;99065.50;5109192;28;20036;-73
2022/12/06 11:38:42;;;;;;;10.93;9.27;;;;;;;4.80;76.63;99024.28;5109006;28;20040;-73
2022/12/06 11:41:13;;;;;;;9.73;8.05;;;;;;;5.07;76.29;99060.97;5108906;28;20047;-73
2022/12/06 11:43:40;;;;;;;9.68;7.90;;;;;;;4.55;76.38;98965.75;5107879;28;20065;-73
2022/12/06 11:46:12;;;;;;;9.25;7.35;;;;;;;5.12;75.35;99062.50;5107945;28;20040;-73
2022/12/06 11:48:39;;;;;;;8.27;7.07;;;;;;;5.13;75.48;99055.50;5108748;28;20234;-73
2022/12/06 11:51:15;;;;;;;7.43;6.57;;;;;;;5.14;74.39;99057.22;5108333;28;20043;-73
2022/12/06 11:54:02;;;;;;;8.00;6.55;;;;;;;5.18;73.93;99052.69;5108952;28;20052;-73
2022/12/06 11:56:32;;;;;;;8.40;7.32;;;;;;;5.26;74.84;99053.25;5108166;28;20296;-74
2022/12/06 11:59:07;;;;;;;7.78;6.47;;;;;;;5.33;74.24;99054.72;5107657;28;20300;-74
2022/12/06 12:01:41;;;;;;;11.07;8.23;;;;;;;5.00;73.90;98992.06;5108799;28;20100;-74
2022/12/06 12:04:26;;;;;;;9.85;7.43;;;;;;;5.33;72.70;99047.69;5108330;28;20039;-74
2022/12/06 12:06:58;;;;;;;10.05;8.40;;;;;;;5.33;74.26;99052.97;5108365;28;20056;-74
2022/12/06 12:09:29;;;;;;;11.20;9.13;;;;;;;5.35;74.50;99056.38;5108475;28;20048;-74
2022/12/06 12:12:01;;;;;;;10.70;8.23;;;;;;;5.35;73.95;99043.25;5107257;28;20040;-74
2022/12/06 12:14:38;;;;;;;10.98;9.02;;;;;;;5.35;73.92;99050.28;5108268;28;20039;-74
2022/12/06 12:17:19;;;;;;;10.48;8.65;;;;;;;4.54;73.51;98952.66;5108335;28;20048;-74
2022/12/06 12:19:51;;;;;;;9.77;8.75;;;;;;;5.37;74.45;99044.03;5108805;28;20084;-74
2022/12/06 12:22:28;;;;;;;11.68;9.95;;;;;;;5.41;74.33;99047.41;5108339;28;20044;-74